Shanghai Express — DPCK — position and weather

sailwx.info

Track history (hours):
 
Tides and Currents Weather Stations Pressure Air Temp Water Temp Dewpoint Dewpoint Depression Visibility Wind Speed Wind Dir Waves Ship Positions

Shanghai Express

Last reported at 2014-Oct-29 07:16 UTC. Time now 2014-Oct-31 19:26 UTC.
Position N 36°34' E 014°43'.

Length 320.6 m; beam 42.8 m; draft 14.5 m.

Type: Ship (hazmat cat A). MMSI: 211367460.

Date/timePositionNaut miles runAvg speedWind from/ knotsBaromVisibWave heightAir tempDewpointWater temp
2014-Oct-29 07:16N 36°34' E 014°43'1317.8
2014-Oct-29 06:34N 36°38' E 014°28'27116.9
2014-Oct-28 14:33N 38°53' E 009°31'1717.2
2014-Oct-28 13:33N 39°03' E 009°13'1111.2
2014-Oct-28 12:33N 39°12' E 009°05'0 0.4
2014-Oct-28 11:32N 39°13' E 009°04'0 0.0
2014-Oct-28 10:32N 39°13' E 009°04'0 0.0
2014-Oct-28 09:31N 39°13' E 009°04'0 0.0
2014-Oct-28 08:31N 39°13' E 009°04'0 0.0
2014-Oct-28 07:34N 39°13' E 009°04'0 0.0
2014-Oct-28 06:33N 39°13' E 009°04'0 0.0
2014-Oct-28 05:33N 39°13' E 009°04'0 0.0
2014-Oct-28 04:32N 39°13' E 009°04'0 0.0
2014-Oct-28 03:32N 39°13' E 009°04'0 0.0
2014-Oct-28 02:31N 39°13' E 009°04'0 0.0
2014-Oct-28 01:32N 39°13' E 009°04'0 0.0
2014-Oct-28 00:31N 39°13' E 009°04'0 0.0
2014-Oct-27 23:31N 39°13' E 009°04'0 0.0
2014-Oct-27 22:30N 39°13' E 009°04'0 0.0
2014-Oct-27 21:33N 39°13' E 009°04'3 3.3
2014-Oct-27 20:33N 39°10' E 009°06'1515.0
2014-Oct-27 19:33N 38°55' E 009°03'1616.5
2014-Oct-27 18:33N 38°46' E 008°46'2117.2
2014-Oct-27 17:20N 38°40' E 008°20'22017.2
2014-Oct-27 04:33N 37°42' E 003°50'3417.0
2014-Oct-27 02:33N 37°33' E 003°09'2117.0
2014-Oct-27 01:18N 37°27' E 002°43'1517.4
2014-Oct-27 00:28N 37°24' E 002°25'1617.7
2014-Oct-26 23:33N 37°19' E 002°06'1817.7
2014-Oct-26 22:33N 37°15' E 001°44'1817.8
2014-Oct-26 21:33N 37°10' E 001°23'1717.2
2014-Oct-26 20:33N 37°05' E 001°02'1716.9
2014-Oct-26 19:33N 37°01' E 000°41'1716.7
2014-Oct-26 18:33N 36°56' E 000°21'1716.7
2014-Oct-26 17:33N 36°52' E 000°01'1716.7
2014-Oct-26 16:33N 36°47' W 000°19'1716.7
2014-Oct-26 15:33N 36°43' W 000°39'1717.1
2014-Oct-26 14:33N 36°38' W 000°60'2617.2
2014-Oct-26 13:04N 36°32' W 001°31'18918.0
2014-Oct-26 02:33N 35°58' W 005°21'18817.0
2014-Oct-25 15:31N 36°20' W 009°12'1717.3
2014-Oct-25 14:33N 36°25' W 009°32'1717.3
2014-Oct-25 13:33N 36°31' W 009°51'1717.4
2014-Oct-25 12:33N 36°38' W 010°11'1717.3
2014-Oct-25 11:33N 36°44' W 010°32'1817.7
2014-Oct-25 10:32N 36°51' W 010°52'1717.1
2014-Oct-25 09:33N 36°56' W 011°13'1717.3
2014-Oct-25 08:33N 37°00' W 011°33'1717.0
2014-Oct-25 07:33N 37°04' W 011°54'1716.8
2014-Oct-25 06:33N 37°09' W 012°14'1716.9
2014-Oct-25 05:33N 37°13' W 012°35'1717.1
2014-Oct-25 04:33N 37°17' W 012°56'1716.9
2014-Oct-25 03:33N 37°21' W 013°17'24016.9
2014-Oct-24 13:21N 38°13' W 018°13'2316.6
2014-Oct-24 12:00N 38°12' W 018°42'20517.1 070 / 151016.8 5.4 1.521.019.820.0
2014-Oct-24 00:00N 38°48' W 023°00'10018.2 050 / 101018.2 5.4 18.517.719.0
2014-Oct-23 18:28N 39°02' W 025°08'2217.3
2014-Oct-23 17:11N 39°04' W 025°36'1117.1
2014-Oct-23 16:33N 39°06' W 025°50'1717.3
2014-Oct-23 15:33N 39°07' W 026°12'2017.5
2014-Oct-23 14:24N 39°09' W 026°38'1517.6
2014-Oct-23 13:32N 39°11' W 026°58'1717.4
2014-Oct-23 12:33N 39°12' W 027°19'814.5
2014-Oct-23 12:00N 39°12' W 027°30'1021.5 090 / 151018.510.8 3.020.018.519.0
2014-Oct-23 11:32N 39°14' W 027°42'1717.4
2014-Oct-23 10:33N 39°15' W 028°04'1717.3
2014-Oct-23 09:33N 39°15' W 028°27'1717.2
2014-Oct-23 08:33N 39°15' W 028°49'1717.2
2014-Oct-23 07:33N 39°15' W 029°11'1717.4
2014-Oct-23 06:33N 39°15' W 029°33'1717.0
2014-Oct-23 05:34N 39°15' W 029°55'1717.0
2014-Oct-23 04:33N 39°14' W 030°17'1717.0
2014-Oct-23 03:33N 39°14' W 030°39'5816.2
2014-Oct-23 00:00N 39°12' W 031°54'20517.0 050 / 251018.5 5.4 18.517.719.0
2014-Oct-22 12:00N 39°18' W 036°18'21818.2 050 / 251021.5 5.4 2.018.016.420.0
2014-Oct-22 00:00N 39°12' W 041°00'21517.9 090 / 141023.0 5.4 18.014.820.0
2014-Oct-21 12:00N 38°54' W 045°36'21317.7 180 / 211020.0 5.4 2.022.020.022.0
2014-Oct-21 00:00N 38°24' W 050°06'21417.9 050 / 161016.5 5.4 20.519.824.0
2014-Oct-20 12:00N 37°54' W 054°36'42617.8 180 / 261014.0 5.4 3.024.622.925.0
2014-Oct-19 12:00N 37°48' W 063°36'   220 / 211009.010.8 2.024.020.823.0
Track history (hours):
 
Tides and Currents Weather Stations Pressure Air Temp Water Temp Dewpoint Dewpoint Depression Visibility Wind Speed Wind Dir Waves Ship Positions

Shanghai Express

Last reported at 2014-Oct-29 07:16 UTC. Time now 2014-Oct-31 19:26 UTC.
Position N 36°34' E 014°43'.

Length 320.6 m; beam 42.8 m; draft 14.5 m.

Type: Ship (hazmat cat A). MMSI: 211367460.

Date/timePositionNaut miles runAvg speedWind from/ knotsBaromVisibWave heightAir tempDewpointWater temp
2014-Oct-29 07:16N 36°34' E 014°43'1317.8
2014-Oct-29 06:34N 36°38' E 014°28'27116.9
2014-Oct-28 14:33N 38°53' E 009°31'1717.2
2014-Oct-28 13:33N 39°03' E 009°13'1111.2
2014-Oct-28 12:33N 39°12' E 009°05'0 0.4
2014-Oct-28 11:32N 39°13' E 009°04'0 0.0
2014-Oct-28 10:32N 39°13' E 009°04'0 0.0
2014-Oct-28 09:31N 39°13' E 009°04'0 0.0
2014-Oct-28 08:31N 39°13' E 009°04'0 0.0
2014-Oct-28 07:34N 39°13' E 009°04'0 0.0
2014-Oct-28 06:33N 39°13' E 009°04'0 0.0
2014-Oct-28 05:33N 39°13' E 009°04'0 0.0
2014-Oct-28 04:32N 39°13' E 009°04'0 0.0
2014-Oct-28 03:32N 39°13' E 009°04'0 0.0
2014-Oct-28 02:31N 39°13' E 009°04'0 0.0
2014-Oct-28 01:32N 39°13' E 009°04'0 0.0
2014-Oct-28 00:31N 39°13' E 009°04'0 0.0
2014-Oct-27 23:31N 39°13' E 009°04'0 0.0
2014-Oct-27 22:30N 39°13' E 009°04'0 0.0
2014-Oct-27 21:33N 39°13' E 009°04'3 3.3
2014-Oct-27 20:33N 39°10' E 009°06'1515.0
2014-Oct-27 19:33N 38°55' E 009°03'1616.5
2014-Oct-27 18:33N 38°46' E 008°46'2117.2
2014-Oct-27 17:20N 38°40' E 008°20'22017.2
2014-Oct-27 04:33N 37°42' E 003°50'3417.0
2014-Oct-27 02:33N 37°33' E 003°09'2117.0
2014-Oct-27 01:18N 37°27' E 002°43'1517.4
2014-Oct-27 00:28N 37°24' E 002°25'1617.7
2014-Oct-26 23:33N 37°19' E 002°06'1817.7
2014-Oct-26 22:33N 37°15' E 001°44'1817.8
2014-Oct-26 21:33N 37°10' E 001°23'1717.2
2014-Oct-26 20:33N 37°05' E 001°02'1716.9
2014-Oct-26 19:33N 37°01' E 000°41'1716.7
2014-Oct-26 18:33N 36°56' E 000°21'1716.7
2014-Oct-26 17:33N 36°52' E 000°01'1716.7
2014-Oct-26 16:33N 36°47' W 000°19'1716.7
2014-Oct-26 15:33N 36°43' W 000°39'1717.1
2014-Oct-26 14:33N 36°38' W 000°60'2617.2
2014-Oct-26 13:04N 36°32' W 001°31'18918.0
2014-Oct-26 02:33N 35°58' W 005°21'18817.0
2014-Oct-25 15:31N 36°20' W 009°12'1717.3
2014-Oct-25 14:33N 36°25' W 009°32'1717.3
2014-Oct-25 13:33N 36°31' W 009°51'1717.4
2014-Oct-25 12:33N 36°38' W 010°11'1717.3
2014-Oct-25 11:33N 36°44' W 010°32'1817.7
2014-Oct-25 10:32N 36°51' W 010°52'1717.1
2014-Oct-25 09:33N 36°56' W 011°13'1717.3
2014-Oct-25 08:33N 37°00' W 011°33'1717.0
2014-Oct-25 07:33N 37°04' W 011°54'1716.8
2014-Oct-25 06:33N 37°09' W 012°14'1716.9
2014-Oct-25 05:33N 37°13' W 012°35'1717.1
2014-Oct-25 04:33N 37°17' W 012°56'1716.9
2014-Oct-25 03:33N 37°21' W 013°17'24016.9
2014-Oct-24 13:21N 38°13' W 018°13'2316.6
2014-Oct-24 12:00N 38°12' W 018°42'20517.1 070 / 151016.8 5.4 1.521.019.820.0
2014-Oct-24 00:00N 38°48' W 023°00'10018.2 050 / 101018.2 5.4 18.517.719.0
2014-Oct-23 18:28N 39°02' W 025°08'2217.3
2014-Oct-23 17:11N 39°04' W 025°36'1117.1
2014-Oct-23 16:33N 39°06' W 025°50'1717.3
2014-Oct-23 15:33N 39°07' W 026°12'2017.5
2014-Oct-23 14:24N 39°09' W 026°38'1517.6
2014-Oct-23 13:32N 39°11' W 026°58'1717.4
2014-Oct-23 12:33N 39°12' W 027°19'814.5
2014-Oct-23 12:00N 39°12' W 027°30'1021.5 090 / 151018.510.8 3.020.018.519.0
2014-Oct-23 11:32N 39°14' W 027°42'1717.4
2014-Oct-23 10:33N 39°15' W 028°04'1717.3
2014-Oct-23 09:33N 39°15' W 028°27'1717.2
2014-Oct-23 08:33N 39°15' W 028°49'1717.2
2014-Oct-23 07:33N 39°15' W 029°11'1717.4
2014-Oct-23 06:33N 39°15' W 029°33'1717.0
2014-Oct-23 05:34N 39°15' W 029°55'1717.0
2014-Oct-23 04:33N 39°14' W 030°17'1717.0
2014-Oct-23 03:33N 39°14' W 030°39'5816.2
2014-Oct-23 00:00N 39°12' W 031°54'20517.0 050 / 251018.5 5.4 18.517.719.0
2014-Oct-22 12:00N 39°18' W 036°18'21818.2 050 / 251021.5 5.4 2.018.016.420.0
2014-Oct-22 00:00N 39°12' W 041°00'21517.9 090 / 141023.0 5.4 18.014.820.0
2014-Oct-21 12:00N 38°54' W 045°36'21317.7 180 / 211020.0 5.4 2.022.020.022.0
2014-Oct-21 00:00N 38°24' W 050°06'21417.9 050 / 161016.5 5.4 20.519.824.0
2014-Oct-20 12:00N 37°54' W 054°36'42617.8 180 / 261014.0 5.4 3.024.622.925.0
2014-Oct-19 12:00N 37°48' W 063°36'   220 / 211009.010.8 2.024.020.823.0

Dump ship's entire track history